Time;durP1;ratioP1;P1;durP2;ratioP2;P2;SDS_P1;SDS_P2;PMS_P1;PMS_P2;Temp;Humidity;BMP_temperature;BMP_pressure;BME280_temperature;BME280_humidity;BME280_pressure;Samples;Min_cycle;Max_cycle;Signal;HPM_P1;HPM_P2
2021/05/02 00:02:17;;;;;;;17.75;10.90;;;7.10;76.70;;;;;;5072367;28;20461;-79
2021/05/02 00:04:43;;;;;;;18.65;11.20;;;7.00;77.00;;;;;;5072509;28;20525;-78
2021/05/02 00:07:09;;;;;;;18.60;11.70;;;7.10;76.80;;;;;;5071535;28;20370;-79
2021/05/02 00:09:35;;;;;;;19.08;12.20;;;6.80;78.30;;;;;;5072517;28;20822;-78
2021/05/02 00:12:00;;;;;;;14.70;10.02;;;6.70;78.90;;;;;;5090824;28;20374;-78
2021/05/02 00:14:27;;;;;;;17.63;11.02;;;6.80;78.20;;;;;;5090431;28;20511;-77
2021/05/02 00:16:56;;;;;;;14.93;10.65;;;6.90;77.30;;;;;;5090121;28;20759;-80
2021/05/02 00:19:22;;;;;;;15.60;10.60;;;6.90;77.40;;;;;;5072506;28;20409;-78
2021/05/02 00:21:49;;;;;;;15.55;10.63;;;6.90;77.30;;;;;;5089908;28;20838;-79
2021/05/02 00:24:18;;;;;;;16.38;10.80;;;7.00;76.80;;;;;;5072558;28;20387;-79
2021/05/02 00:26:44;;;;;;;16.77;10.90;;;7.10;76.40;;;;;;5089689;28;20405;-78
2021/05/02 00:29:14;;;;;;;15.85;10.20;;;6.80;77.90;;;;;;5072259;28;20397;-79
2021/05/02 00:31:41;;;;;;;18.30;11.18;;;6.80;77.70;;;;;;5071846;28;20389;-79
2021/05/02 00:34:08;;;;;;;18.23;10.68;;;6.80;78.00;;;;;;5071970;28;20382;-79
2021/05/02 00:36:34;;;;;;;16.25;10.60;;;6.80;78.60;;;;;;5071715;28;20382;-78
2021/05/02 00:38:59;;;;;;;16.70;10.27;;;7.00;77.00;;;;;;5091654;28;20382;-79
2021/05/02 00:41:31;;;;;;;16.05;10.38;;;7.20;76.10;;;;;;5093851;28;20374;-78
2021/05/02 00:44:03;;;;;;;16.13;10.85;;;7.20;76.20;;;;;;5093565;28;20378;-77
2021/05/02 00:46:48;;;;;;;17.83;11.25;;;7.00;77.50;;;;;;5093520;28;20389;-78
2021/05/02 00:49:17;;;;;;;14.07;10.07;;;6.50;80.60;;;;;;5075171;28;20405;-79
2021/05/02 00:51:47;;;;;;;18.27;11.80;;;6.70;79.40;;;;;;5093577;28;20389;-79
2021/05/02 00:54:20;;;;;;;15.68;10.75;;;6.60;80.30;;;;;;5075577;28;20476;-78
2021/05/02 00:57:18;;;;;;;17.70;11.35;;;6.50;80.40;;;;;;5074993;28;20386;-78
2021/05/02 01:00:03;;;;;;;17.83;12.82;;;6.40;81.40;;;;;;5075391;28;20378;-79
2021/05/02 01:02:32;;;;;;;18.23;12.82;;;6.40;81.60;;;;;;5075288;28;20869;-79
2021/05/02 01:05:00;;;;;;;20.77;12.63;;;6.40;82.20;;;;;;5093648;28;20382;-77
2021/05/02 01:07:34;;;;;;;24.03;13.40;;;6.40;82.50;;;;;;5074531;28;20466;-77
2021/05/02 01:10:08;;;;;;;21.40;12.70;;;6.40;82.60;;;;;;5092834;28;20715;-78
2021/05/02 01:12:38;;;;;;;20.92;13.05;;;6.30;83.10;;;;;;5093823;28;20371;-77
2021/05/02 01:15:06;;;;;;;21.65;13.75;;;6.40;82.00;;;;;;5074818;28;20393;-78
2021/05/02 01:17:38;;;;;;;20.20;13.52;;;6.30;82.60;;;;;;5074816;28;20417;-78
2021/05/02 01:20:04;;;;;;;22.50;12.97;;;6.30;82.40;;;;;;5075166;28;20434;-79
2021/05/02 01:22:34;;;;;;;22.60;13.00;;;6.30;82.20;;;;;;5093008;28;20389;-78
2021/05/02 01:25:00;;;;;;;21.13;13.57;;;6.20;82.60;;;;;;5074961;28;20873;-79
2021/05/02 01:27:31;;;;;;;18.67;12.23;;;5.90;83.80;;;;;;5092180;28;20868;-79
2021/05/02 01:29:58;;;;;;;22.58;13.43;;;6.20;82.70;;;;;;5092984;28;20366;-79
2021/05/02 01:32:26;;;;;;;22.92;13.93;;;5.90;83.70;;;;;;5074476;28;20392;-79
2021/05/02 01:34:52;;;;;;;19.65;12.55;;;5.70;84.80;;;;;;5093291;28;20378;-79
2021/05/02 01:37:18;;;;;;;23.40;14.43;;;6.00;83.30;;;;;;5092020;28;20703;-77
2021/05/02 01:39:44;;;;;;;24.25;14.23;;;6.00;83.50;;;;;;5093065;28;20407;-78
2021/05/02 01:42:10;;;;;;;24.55;14.52;;;5.90;84.70;;;;;;5092473;28;20369;-79
2021/05/02 01:44:36;;;;;;;22.20;14.33;;;6.00;84.60;;;;;;5092973;28;20420;-78
2021/05/02 01:47:09;;;;;;;21.07;13.40;;;5.90;84.60;;;;;;5092261;28;20449;-78
2021/05/02 01:49:42;;;;;;;21.30;12.27;;;6.10;83.80;;;;;;5092034;28;20382;-78
2021/05/02 01:52:08;;;;;;;19.27;12.63;;;6.10;83.70;;;;;;5092368;28;20385;-78
2021/05/02 01:54:36;;;;;;;19.38;12.40;;;6.00;84.60;;;;;;5092457;28;20382;-78
2021/05/02 01:57:01;;;;;;;18.70;12.43;;;6.10;83.50;;;;;;5092340;28;20381;-78
2021/05/02 01:59:27;;;;;;;23.67;14.27;;;6.10;83.90;;;;;;5091935;28;20382;-78
2021/05/02 02:01:53;;;;;;;20.23;13.18;;;5.80;85.10;;;;;;5092669;28;20461;-79
2021/05/02 02:04:21;;;;;;;22.40;12.43;;;6.00;85.20;;;;;;5092554;28;20389;-80
2021/05/02 02:06:48;;;;;;;20.98;12.63;;;6.10;84.20;;;;;;5092611;28;20401;-78
2021/05/02 02:09:13;;;;;;;20.35;13.57;;;5.90;84.70;;;;;;5092366;28;20397;-78
2021/05/02 02:11:39;;;;;;;23.42;13.23;;;6.00;84.40;;;;;;5074706;28;20385;-79
2021/05/02 02:14:05;;;;;;;20.08;13.00;;;5.90;85.20;;;;;;5092366;28;20397;-80
2021/05/02 02:16:30;;;;;;;17.77;12.07;;;5.70;86.10;;;;;;5092054;28;20412;-77
2021/05/02 02:18:56;;;;;;;20.42;12.82;;;5.90;85.60;;;;;;5091789;28;20374;-78
2021/05/02 02:21:24;;;;;;;24.67;13.15;;;5.80;85.90;;;;;;5092148;28;20381;-78
2021/05/02 02:23:59;;;;;;;19.83;12.80;;;5.90;84.80;;;;;;5092254;28;20781;-78
2021/05/02 02:26:36;;;;;;;20.60;12.43;;;5.80;86.20;;;;;;5091642;28;20432;-77
2021/05/02 02:29:04;;;;;;;22.48;12.88;;;5.60;85.90;;;;;;5092201;28;20398;-78
2021/05/02 02:31:33;;;;;;;18.05;12.13;;;5.70;86.10;;;;;;5091701;28;20433;-80
2021/05/02 02:33:59;;;;;;;18.88;11.85;;;5.80;85.60;;;;;;5073894;28;20382;-78
2021/05/02 02:36:25;;;;;;;18.75;12.07;;;5.80;85.80;;;;;;5091353;28;20432;-79
2021/05/02 02:38:51;;;;;;;17.05;11.13;;;5.90;85.20;;;;;;5091837;28;20386;-77
2021/05/02 02:41:18;;;;;;;18.73;11.32;;;5.70;85.80;;;;;;5091682;28;20378;-78
2021/05/02 02:43:55;;;;;;;17.80;11.48;;;5.80;85.80;;;;;;5073251;28;20527;-79
2021/05/02 02:46:21;;;;;;;17.48;10.38;;;5.70;86.20;;;;;;5090112;28;20385;-78
2021/05/02 02:48:58;;;;;;;17.13;9.95;;;5.70;85.80;;;;;;5072484;28;20393;-78
2021/05/02 02:51:26;;;;;;;15.77;10.43;;;5.80;85.40;;;;;;5073431;28;20378;-79
2021/05/02 02:53:54;;;;;;;17.00;10.52;;;5.70;86.10;;;;;;5072796;28;20379;-78
2021/05/02 02:56:21;;;;;;;17.38;10.57;;;5.90;85.10;;;;;;5091239;28;20648;-79
2021/05/02 02:58:56;;;;;;;16.95;10.10;;;5.60;85.80;;;;;;5090609;28;20381;-78
2021/05/02 03:01:22;;;;;;;14.88;9.77;;;5.60;86.00;;;;;;5073061;28;20455;-78
2021/05/02 03:03:49;;;;;;;15.75;10.23;;;5.60;86.30;;;;;;5091045;28;20379;-79
2021/05/02 03:06:16;;;;;;;16.52;10.32;;;5.80;85.50;;;;;;5073012;28;20390;-79
2021/05/02 03:08:41;;;;;;;16.58;9.95;;;5.70;85.50;;;;;;5090530;28;20406;-78
2021/05/02 03:11:08;;;;;;;16.67;9.67;;;5.70;86.10;;;;;;5072779;28;20397;-78
2021/05/02 03:13:35;;;;;;;15.52;9.77;;;5.60;86.00;;;;;;5072616;28;20516;-78
2021/05/02 03:16:01;;;;;;;18.38;10.07;;;5.50;86.50;;;;;;5090361;28;20382;-79
2021/05/02 03:18:32;;;;;;;18.70;9.68;;;5.70;85.90;;;;;;5090646;28;20464;-79
2021/05/02 03:21:05;;;;;;;16.08;9.57;;;5.90;84.80;;;;;;5072539;28;20774;-77
2021/05/02 03:23:34;;;;;;;18.63;8.27;;;5.90;84.20;;;;;;5073069;28;20388;-79
2021/05/02 03:26:03;;;;;;;16.58;8.68;;;5.60;85.50;;;;;;5090331;28;20382;-78
2021/05/02 03:28:53;;;;;;;14.18;8.48;;;5.40;85.90;;;;;;5072053;28;20797;-78
2021/05/02 03:31:23;;;;;;;17.40;8.38;;;5.50;85.90;;;;;;5090971;28;20389;-79
2021/05/02 03:33:54;;;;;;;15.13;8.65;;;5.70;85.20;;;;;;5072372;28;20465;-78
2021/05/02 03:36:32;;;;;;;15.90;7.97;;;5.70;85.20;;;;;;5090792;28;20381;-79
2021/05/02 03:38:59;;;;;;;13.55;7.15;;;5.60;85.20;;;;;;5072203;28;20381;-78
2021/05/02 03:41:25;;;;;;;10.65;6.70;;;5.70;85.10;;;;;;5072665;28;20370;-78
2021/05/02 03:43:50;;;;;;;11.80;6.68;;;5.60;84.80;;;;;;5072135;28;20378;-79
2021/05/02 03:46:25;;;;;;;13.30;7.10;;;5.70;84.50;;;;;;5090773;28;20436;-78
2021/05/02 03:48:55;;;;;;;11.10;5.97;;;5.60;84.80;;;;;;5090082;28;20431;-79
2021/05/02 03:51:21;;;;;;;11.02;6.00;;;5.70;84.40;;;;;;5072716;28;20390;-79
2021/05/02 03:53:47;;;;;;;12.32;6.38;;;5.80;83.90;;;;;;5090364;28;20370;-79
2021/05/02 03:56:12;;;;;;;13.38;6.45;;;5.70;84.20;;;;;;5090643;28;20556;-79
2021/05/02 03:58:38;;;;;;;9.95;5.97;;;5.60;84.40;;;;;;5072172;28;20800;-77
2021/05/02 04:01:03;;;;;;;13.03;6.90;;;5.70;84.50;;;;;;5090135;28;20458;-78
2021/05/02 04:03:29;;;;;;;13.60;7.43;;;5.60;84.70;;;;;;5090669;28;20896;-78
2021/05/02 04:05:54;;;;;;;16.17;7.93;;;5.50;84.90;;;;;;5090525;28;20784;-78
2021/05/02 04:08:20;;;;;;;18.63;9.70;;;5.60;85.10;;;;;;5089852;28;20513;-78
2021/05/02 04:10:45;;;;;;;18.57;10.53;;;5.50;85.70;;;;;;5090118;28;20840;-77
2021/05/02 04:13:11;;;;;;;18.70;11.20;;;5.60;85.80;;;;;;5072877;28;20453;-79
2021/05/02 04:15:36;;;;;;;22.00;11.32;;;5.50;86.30;;;;;;5076222;28;20722;-78
2021/05/02 04:18:02;;;;;;;22.07;11.83;;;5.60;86.20;;;;;;5093806;28;20428;-78
2021/05/02 04:20:27;;;;;;;23.80;12.00;;;5.70;85.90;;;;;;5094348;28;20464;-78
2021/05/02 04:22:53;;;;;;;18.20;11.27;;;5.80;85.40;;;;;;5094322;28;20819;-79
2021/05/02 04:25:19;;;;;;;22.87;12.00;;;5.70;85.50;;;;;;5076100;28;20386;-78
2021/05/02 04:27:44;;;;;;;26.37;11.73;;;5.60;86.10;;;;;;5093526;28;20405;-78
2021/05/02 04:30:10;;;;;;;18.73;11.50;;;5.60;86.60;;;;;;5094475;28;20385;-78
2021/05/02 04:32:36;;;;;;;20.98;11.13;;;5.80;85.50;;;;;;5093801;28;20465;-78
2021/05/02 04:35:02;;;;;;;24.90;11.37;;;5.70;85.70;;;;;;5076204;28;20755;-79
2021/05/02 04:37:28;;;;;;;19.95;11.30;;;5.80;85.50;;;;;;5075673;28;20743;-79
2021/05/02 04:39:53;;;;;;;20.70;11.10;;;5.70;85.70;;;;;;5093948;28;20402;-79
2021/05/02 04:42:19;;;;;;;17.38;11.20;;;5.80;85.40;;;;;;5076096;28;20463;-76
2021/05/02 04:44:44;;;;;;;17.90;10.20;;;5.60;85.50;;;;;;5093652;28;20405;-79
2021/05/02 04:47:17;;;;;;;21.00;10.73;;;5.70;85.30;;;;;;5075434;28;20386;-79
2021/05/02 04:49:43;;;;;;;18.10;10.30;;;5.60;85.80;;;;;;5075457;28;20420;-77
2021/05/02 04:52:08;;;;;;;22.48;10.25;;;5.50;85.80;;;;;;5075801;28;20374;-78
2021/05/02 04:54:34;;;;;;;19.40;10.10;;;5.50;85.80;;;;;;5093422;28;20374;-80
2021/05/02 04:56:59;;;;;;;18.55;10.52;;;5.60;85.20;;;;;;5075108;28;20765;-81
2021/05/02 04:59:25;;;;;;;19.73;10.90;;;5.60;85.60;;;;;;5075504;28;20378;-79
2021/05/02 05:01:50;;;;;;;17.53;10.27;;;5.60;85.70;;;;;;5075259;28;20382;-78
2021/05/02 05:04:16;;;;;;;20.37;10.77;;;5.70;85.40;;;;;;5094003;28;20393;-77
2021/05/02 05:06:41;;;;;;;19.83;10.70;;;5.50;85.90;;;;;;5093151;28;20792;-78
2021/05/02 05:09:07;;;;;;;18.15;10.30;;;5.50;86.00;;;;;;5075348;28;20412;-78
2021/05/02 05:11:33;;;;;;;18.65;10.18;;;5.50;85.90;;;;;;5074976;28;20390;-78
2021/05/02 05:13:59;;;;;;;16.15;9.77;;;5.50;85.70;;;;;;5093526;28;20385;-80
2021/05/02 05:16:24;;;;;;;16.90;9.90;;;5.50;85.40;;;;;;5093026;28;20382;-79
2021/05/02 05:18:50;;;;;;;18.20;9.83;;;5.40;85.60;;;;;;5093232;28;20420;-78
2021/05/02 05:21:15;;;;;;;21.87;9.57;;;5.50;85.60;;;;;;5093031;28;20759;-78
2021/05/02 05:23:41;;;;;;;15.57;8.37;;;5.70;85.20;;;;;;5074982;28;20378;-78
2021/05/02 05:26:06;;;;;;;18.13;9.00;;;5.70;84.50;;;;;;5092917;28;20839;-78
2021/05/02 05:28:32;;;;;;;15.43;8.93;;;5.60;85.20;;;;;;5073890;28;20466;-78
2021/05/02 05:30:57;;;;;;;14.70;8.48;;;5.60;84.70;;;;;;5092851;28;20435;-78
2021/05/02 05:33:28;;;;;;;20.23;8.30;;;5.50;84.70;;;;;;5092412;28;20375;-80
2021/05/02 05:35:55;;;;;;;20.33;8.80;;;5.60;84.80;;;;;;5075007;28;20435;-77
2021/05/02 05:38:20;;;;;;;14.00;8.18;;;5.60;84.70;;;;;;5091826;28;20382;-79
2021/05/02 05:40:46;;;;;;;14.57;7.90;;;5.60;84.60;;;;;;5093001;28;20377;-79
2021/05/02 05:43:11;;;;;;;15.33;7.63;;;5.70;84.70;;;;;;5092599;28;20464;-78
2021/05/02 05:45:37;;;;;;;17.80;7.50;;;5.60;84.20;;;;;;5093026;28;20370;-79
2021/05/02 05:48:02;;;;;;;10.27;6.70;;;5.50;84.30;;;;;;5073817;28;20394;-77
2021/05/02 05:50:29;;;;;;;12.00;7.30;;;5.60;84.10;;;;;;5074469;28;20893;-79
2021/05/02 05:52:55;;;;;;;12.70;6.90;;;5.70;84.10;;;;;;5074229;28;20508;-79
2021/05/02 05:55:22;;;;;;;13.73;6.82;;;5.80;83.70;;;;;;5092670;28;20830;-80
2021/05/02 05:57:49;;;;;;;13.43;6.90;;;5.90;82.70;;;;;;5073827;28;20437;-78
2021/05/02 06:00:16;;;;;;;13.02;7.40;;;5.70;83.70;;;;;;5074002;28;20381;-78
2021/05/02 06:02:42;;;;;;;16.30;7.38;;;5.70;83.70;;;;;;5092687;28;20374;-77
2021/05/02 06:05:08;;;;;;;12.88;6.60;;;5.70;83.90;;;;;;5091792;28;20382;-77
2021/05/02 06:07:34;;;;;;;17.27;7.38;;;5.80;83.80;;;;;;5073272;28;20409;-79
2021/05/02 06:09:59;;;;;;;17.33;7.87;;;5.80;83.60;;;;;;5091901;28;20382;-77
2021/05/02 06:12:25;;;;;;;16.03;6.93;;;5.70;83.50;;;;;;5092270;28;20913;-77
2021/05/02 06:14:50;;;;;;;13.57;6.82;;;5.80;83.20;;;;;;5073861;28;20400;-79
2021/05/02 06:17:16;;;;;;;13.83;6.90;;;5.60;83.80;;;;;;5091098;28;20382;-80
2021/05/02 06:19:42;;;;;;;15.10;6.80;;;5.60;83.50;;;;;;5073689;28;20374;-77
2021/05/02 06:22:08;;;;;;;15.80;7.70;;;5.60;84.10;;;;;;5090801;28;20382;-78
2021/05/02 06:24:33;;;;;;;13.47;7.00;;;5.70;83.70;;;;;;5090318;28;20370;-80
2021/05/02 06:26:59;;;;;;;13.93;7.23;;;5.80;83.30;;;;;;5091193;28;20556;-82
2021/05/02 06:29:25;;;;;;;13.70;6.90;;;5.90;83.10;;;;;;5107239;28;20410;-79
2021/05/02 06:31:50;;;;;;;11.40;6.27;;;6.00;82.60;;;;;;5091634;28;20385;-78
2021/05/02 06:34:16;;;;;;;11.00;6.67;;;6.00;82.50;;;;;;5094895;28;20391;-79
2021/05/02 06:36:42;;;;;;;13.20;6.00;;;6.00;82.20;;;;;;5084300;28;20405;-78
2021/05/02 06:39:09;;;;;;;13.32;5.95;;;6.10;82.30;;;;;;5091174;28;20377;-78
2021/05/02 06:41:37;;;;;;;17.10;6.10;;;6.20;81.00;;;;;;5073415;28;20394;-79
2021/05/02 06:44:04;;;;;;;12.60;5.43;;;6.00;81.50;;;;;;5072976;28;20439;-77
2021/05/02 06:46:30;;;;;;;12.13;5.70;;;6.10;81.00;;;;;;5091485;28;20374;-77
2021/05/02 06:49:01;;;;;;;10.95;5.32;;;6.20;80.20;;;;;;5091316;28;20405;-79
2021/05/02 06:51:27;;;;;;;12.00;5.60;;;6.20;79.80;;;;;;5073327;28;20419;-80
2021/05/02 06:53:53;;;;;;;10.90;4.88;;;6.30;80.70;;;;;;5090807;28;20421;-80
2021/05/02 06:56:19;;;;;;;15.02;5.25;;;6.40;79.20;;;;;;5071161;28;20722;-80
2021/05/02 06:58:47;;;;;;;10.05;5.18;;;6.40;78.90;;;;;;5071427;28;20378;-81
2021/05/02 07:01:12;;;;;;;12.50;5.20;;;6.40;78.70;;;;;;5072468;28;20469;-80
2021/05/02 07:03:38;;;;;;;11.02;5.30;;;6.40;78.60;;;;;;5073254;28;20466;-79
2021/05/02 07:06:04;;;;;;;9.25;4.57;;;6.40;78.00;;;;;;5081913;28;20410;-78
2021/05/02 07:08:30;;;;;;;11.40;4.88;;;6.50;77.70;;;;;;5090854;28;20397;-78
2021/05/02 07:10:56;;;;;;;12.75;5.57;;;6.70;77.00;;;;;;5091273;28;20435;-79
2021/05/02 07:13:21;;;;;;;11.23;4.50;;;6.90;76.50;;;;;;5089854;28;20842;-77
2021/05/02 07:15:47;;;;;;;11.73;4.00;;;7.00;75.40;;;;;;5091371;28;20374;-79
2021/05/02 07:18:12;;;;;;;9.43;3.87;;;7.20;75.00;;;;;;5090885;28;20374;-80
2021/05/02 07:20:38;;;;;;;10.40;3.92;;;7.40;75.20;;;;;;5089894;28;20457;-77
2021/05/02 07:23:03;;;;;;;11.40;3.67;;;7.30;73.70;;;;;;5089657;28;20765;-79
2021/05/02 07:25:29;;;;;;;9.65;3.53;;;7.60;74.70;;;;;;5089658;28;20381;-82
2021/05/02 07:27:54;;;;;;;9.10;3.10;;;7.70;72.00;;;;;;5089152;28;20406;-79
2021/05/02 07:30:21;;;;;;;5.50;3.10;;;7.50;72.50;;;;;;5089270;28;20440;-80
2021/05/02 07:32:47;;;;;;;11.75;2.53;;;7.60;72.00;;;;;;5089404;28;20683;-77
2021/05/02 07:35:13;;;;;;;5.82;2.30;;;7.40;71.60;;;;;;5089193;28;20867;-81
2021/05/02 07:37:39;;;;;;;9.02;2.55;;;7.40;71.40;;;;;;5088675;28;20378;-79
2021/05/02 07:40:06;;;;;;;7.10;2.80;;;7.40;71.50;;;;;;5090549;28;20382;-78
2021/05/02 07:42:32;;;;;;;10.43;3.00;;;7.40;70.30;;;;;;5090641;28;20363;-81
2021/05/02 07:44:57;;;;;;;9.93;2.65;;;7.20;70.90;;;;;;5090197;28;20437;-80
2021/05/02 07:47:23;;;;;;;8.57;2.60;;;7.40;71.80;;;;;;5089665;28;20722;-79
2021/05/02 07:49:49;;;;;;;8.00;2.80;;;7.40;70.10;;;;;;5088449;28;20892;-81
2021/05/02 07:52:14;;;;;;;5.47;2.60;;;7.60;70.10;;;;;;5090650;28;20370;-78
2021/05/02 07:54:40;;;;;;;5.45;2.35;;;7.90;68.30;;;;;;5088773;28;20464;-78
2021/05/02 07:57:06;;;;;;;9.67;2.73;;;7.40;68.70;;;;;;5089495;28;20374;-77
2021/05/02 07:59:31;;;;;;;8.83;2.83;;;8.10;68.70;;;;;;5090476;28;20725;-81
2021/05/02 08:01:57;;;;;;;6.67;2.20;;;8.10;67.60;;;;;;5088953;28;20374;-79
2021/05/02 08:04:22;;;;;;;9.07;2.60;;;8.20;68.80;;;;;;5090571;28;20374;-78
2021/05/02 08:06:49;;;;;;;7.60;3.00;;;8.10;66.80;;;;;;5089666;28;20398;-79
2021/05/02 08:09:14;;;;;;;5.10;2.22;;;8.00;67.60;;;;;;5089003;28;20394;-78
2021/05/02 08:11:40;;;;;;;5.50;2.38;;;8.20;66.30;;;;;;5089725;28;20447;-79
2021/05/02 08:14:05;;;;;;;10.90;2.30;;;7.90;64.80;;;;;;5088837;28;20396;-78
2021/05/02 08:16:31;;;;;;;9.30;2.40;;;7.70;65.20;;;;;;5089643;28;20435;-79
2021/05/02 08:18:57;;;;;;;7.80;1.90;;;7.80;65.10;;;;;;5090150;28;20753;-79
2021/05/02 08:21:23;;;;;;;7.75;2.28;;;7.70;64.30;;;;;;5089880;28;20413;-78
2021/05/02 08:23:50;;;;;;;6.27;1.90;;;8.00;64.90;;;;;;5090190;28;20408;-78
2021/05/02 08:26:15;;;;;;;7.05;1.88;;;8.10;64.10;;;;;;5088762;28;20385;-79
2021/05/02 08:28:41;;;;;;;8.73;2.53;;;8.10;62.90;;;;;;5089194;28;20394;-79
2021/05/02 08:31:07;;;;;;;7.15;2.97;;;8.00;63.00;;;;;;5072321;28;20715;-79
2021/05/02 08:33:32;;;;;;;7.40;2.10;;;7.90;64.30;;;;;;5088454;28;20378;-80
2021/05/02 08:35:58;;;;;;;3.95;1.98;;;8.10;64.60;;;;;;5104079;28;20386;-78
2021/05/02 08:38:23;;;;;;;10.48;2.03;;;8.10;62.90;;;;;;5088420;28;20731;-78
2021/05/02 08:40:49;;;;;;;4.63;1.77;;;8.10;63.30;;;;;;5104739;28;20378;-79
2021/05/02 08:43:17;;;;;;;4.47;1.70;;;8.20;64.00;;;;;;5088926;28;20366;-78
2021/05/02 08:45:43;;;;;;;5.07;1.70;;;8.30;61.20;;;;;;5070763;28;20464;-79
2021/05/02 08:48:11;;;;;;;10.63;2.10;;;8.70;62.60;;;;;;5070231;28;20949;-79
2021/05/02 08:50:37;;;;;;;5.40;1.90;;;8.80;59.60;;;;;;5104640;28;20396;-77
2021/05/02 08:53:06;;;;;;;5.25;1.92;;;8.50;60.00;;;;;;5088880;28;20457;-79
2021/05/02 08:55:32;;;;;;;6.72;1.98;;;8.50;59.80;;;;;;5088787;28;20457;-78
2021/05/02 08:57:57;;;;;;;7.18;2.20;;;8.40;61.70;;;;;;5070385;28;20473;-80
2021/05/02 09:00:23;;;;;;;5.68;1.90;;;8.40;62.70;;;;;;5091231;28;20374;-81
2021/05/02 09:02:55;;;;;;;12.00;2.78;;;8.40;63.60;;;;;;5107737;28;20382;-81
2021/05/02 09:05:22;;;;;;;4.93;2.22;;;8.30;65.10;;;;;;5107899;28;20436;-78
2021/05/02 09:07:47;;;;;;;8.10;3.00;;;8.40;64.80;;;;;;5107800;28;20414;-80
2021/05/02 09:10:17;;;;;;;5.87;2.50;;;8.70;63.00;;;;;;5092752;28;20685;-78
2021/05/02 09:13:00;;;;;;;5.85;2.10;;;9.00;63.70;;;;;;5074531;28;20378;-80
2021/05/02 09:15:26;;;;;;;7.28;2.25;;;9.40;61.40;;;;;;5108156;28;20869;-79
2021/05/02 09:18:00;;;;;;;6.40;2.50;;;9.10;61.30;;;;;;5092567;28;20465;-81
2021/05/02 09:20:51;;;;;;;7.43;2.40;;;8.90;62.30;;;;;;5092372;28;20374;-79
2021/05/02 09:23:18;;;;;;;8.80;2.50;;;8.60;63.60;;;;;;5092040;28;20385;-80
2021/05/02 09:25:49;;;;;;;9.32;2.70;;;8.60;63.50;;;;;;5092362;28;20374;-81
2021/05/02 09:28:16;;;;;;;6.63;2.40;;;8.50;63.20;;;;;;5073611;28;20402;-79
2021/05/02 09:30:41;;;;;;;5.53;2.40;;;8.60;63.30;;;;;;5092194;28;20378;-80
2021/05/02 09:33:07;;;;;;;3.97;2.20;;;8.50;62.60;;;;;;5091782;28;20428;-80
2021/05/02 09:35:35;;;;;;;5.90;2.37;;;8.40;63.10;;;;;;5092378;28;20850;-80
2021/05/02 09:38:12;;;;;;;5.70;2.72;;;8.30;63.40;;;;;;5107239;28;20397;-80
2021/05/02 09:40:48;;;;;;;7.57;2.20;;;8.40;63.70;;;;;;5091941;28;20457;-80
2021/05/02 09:43:41;;;;;;;8.55;2.20;;;8.40;64.10;;;;;;5091837;28;20441;-81
2021/05/02 09:46:23;;;;;;;5.93;1.75;;;9.00;58.60;;;;;;5091672;28;20386;-80
2021/05/02 09:49:10;;;;;;;4.05;1.77;;;9.60;57.40;;;;;;5107129;28;20394;-79
2021/05/02 09:51:38;;;;;;;4.85;1.50;;;9.90;53.90;;;;;;5077081;28;20398;-79
2021/05/02 09:54:09;;;;;;;5.72;1.50;;;10.20;56.20;;;;;;5073409;28;20389;-80
2021/05/02 09:56:43;;;;;;;5.20;2.17;;;10.40;52.40;;;;;;5091420;28;20700;-81
2021/05/02 09:59:23;;;;;;;2.60;1.48;;;10.00;54.70;;;;;;5106992;28;20390;-79
2021/05/02 10:02:11;;;;;;;3.97;1.80;;;9.60;55.10;;;;;;5107243;28;20390;-81
2021/05/02 10:04:58;;;;;;;7.07;2.33;;;8.90;57.60;;;;;;5107081;28;20389;-79
2021/05/02 10:07:26;;;;;;;3.85;1.73;;;9.00;58.40;;;;;;5072276;28;20394;-78
2021/05/02 10:09:53;;;;;;;4.50;2.05;;;9.10;58.20;;;;;;5073218;28;20424;-81
2021/05/02 10:12:19;;;;;;;10.27;2.42;;;9.10;58.40;;;;;;5090012;28;20827;-80
2021/05/02 10:14:47;;;;;;;7.32;2.63;;;9.20;58.70;;;;;;5091528;28;20386;-80
2021/05/02 10:17:13;;;;;;;8.15;1.80;;;9.30;56.60;;;;;;5090323;28;20838;-80
2021/05/02 10:19:39;;;;;;;5.60;2.10;;;9.00;56.80;;;;;;5072872;28;20386;-80
2021/05/02 10:22:05;;;;;;;2.88;1.60;;;9.70;56.10;;;;;;5090826;28;20386;-79
2021/05/02 10:24:31;;;;;;;4.32;1.35;;;10.20;52.00;;;;;;5091419;28;20850;-80
2021/05/02 10:26:57;;;;;;;7.93;1.93;;;10.50;50.00;;;;;;5090302;28;20376;-80
2021/05/02 10:29:23;;;;;;;5.13;1.80;;;10.20;51.60;;;;;;5090895;28;20431;-80
2021/05/02 10:31:50;;;;;;;6.13;1.90;;;9.70;51.40;;;;;;5090529;28;20481;-81
2021/05/02 10:34:30;;;;;;;4.38;1.75;;;9.90;51.00;;;;;;5106552;28;20394;-80
2021/05/02 10:37:23;;;;;;;5.30;1.90;;;9.60;54.50;;;;;;5090667;28;20402;-80
2021/05/02 10:39:55;;;;;;;6.10;2.03;;;9.80;53.30;;;;;;5090148;28;21016;-83
2021/05/02 10:42:39;;;;;;;5.97;1.90;;;9.60;53.90;;;;;;5072526;28;20482;-81
2021/05/02 10:45:30;;;;;;;4.63;1.37;;;9.60;53.50;;;;;;5090316;28;20511;-79
2021/05/02 10:48:00;;;;;;;4.35;1.55;;;9.50;50.90;;;;;;5090391;28;20397;-80
2021/05/02 10:50:34;;;;;;;3.63;1.50;;;9.40;52.20;;;;;;5091282;28;20379;-81
2021/05/02 10:53:03;;;;;;;2.95;1.40;;;9.30;52.60;;;;;;5117560;27;20382;-80
2021/05/02 10:55:50;;;;;;;5.50;1.90;;;9.20;53.80;;;;;;5090622;28;20386;-81
2021/05/02 10:58:27;;;;;;;4.68;1.83;;;9.10;52.10;;;;;;5088664;28;20703;-81
2021/05/02 11:01:01;;;;;;;8.32;2.10;;;9.40;52.80;;;;;;5089438;28;20386;-80
2021/05/02 11:03:35;;;;;;;7.00;1.70;;;9.60;52.50;;;;;;5090230;28;20386;-80
2021/05/02 11:06:14;;;;;;;8.55;1.83;;;9.40;52.70;;;;;;5089113;28;20653;-80
2021/05/02 11:08:57;;;;;;;5.03;1.75;;;9.40;53.30;;;;;;5089770;28;20427;-84
2021/05/02 11:11:49;;;;;;;10.77;1.80;;;9.40;53.50;;;;;;5088854;28;20394;-80
2021/05/02 11:14:15;;;;;;;2.42;1.38;;;9.50;52.80;;;;;;5090535;28;20398;-80
2021/05/02 11:16:41;;;;;;;3.92;1.58;;;9.40;51.10;;;;;;5090213;28;20385;-79
2021/05/02 11:19:16;;;;;;;5.40;1.70;;;9.30;52.70;;;;;;5090676;28;20854;-80
2021/05/02 11:21:50;;;;;;;3.50;1.70;;;9.50;53.50;;;;;;5090069;28;20374;-80
2021/05/02 11:24:42;;;;;;;4.32;1.48;;;9.80;51.50;;;;;;5090068;28;20393;-81
2021/05/02 11:27:22;;;;;;;3.53;1.40;;;9.90;51.80;;;;;;5090033;28;20370;-80
2021/05/02 11:29:54;;;;;;;4.00;1.50;;;9.70;49.40;;;;;;5090293;28;20386;-81
2021/05/02 11:32:26;;;;;;;3.67;1.35;;;9.80;49.50;;;;;;5088532;28;20401;-80
2021/05/02 11:34:56;;;;;;;6.70;1.50;;;9.80;48.90;;;;;;5090138;28;20382;-81
2021/05/02 11:37:40;;;;;;;3.35;1.40;;;9.60;48.90;;;;;;5089564;28;20382;-80
2021/05/02 11:40:18;;;;;;;3.72;1.40;;;9.60;47.10;;;;;;5090140;28;20382;-81
2021/05/02 11:43:09;;;;;;;4.07;1.30;;;9.60;48.10;;;;;;5089698;28;20916;-80
2021/05/02 11:45:52;;;;;;;6.25;1.23;;;9.70;47.90;;;;;;5089943;28;20374;-80
2021/05/02 11:48:33;;;;;;;3.65;1.30;;;9.80;49.30;;;;;;5089054;28;20459;-81
2021/05/02 11:51:02;;;;;;;5.35;1.55;;;9.80;47.50;;;;;;5089872;28;20386;-83
2021/05/02 11:53:47;;;;;;;6.43;1.50;;;10.10;47.40;;;;;;5088316;28;20418;-80
2021/05/02 11:56:22;;;;;;;2.50;1.30;;;10.20;46.80;;;;;;5088117;28;20730;-81
2021/05/02 11:58:54;;;;;;;5.50;1.30;;;10.00;47.70;;;;;;5088385;28;20401;-80
2021/05/02 12:01:24;;;;;;;4.57;1.27;;;9.90;46.70;;;;;;5089127;28;20405;-80
2021/05/02 12:03:50;;;;;;;2.38;1.50;;;10.00;47.10;;;;;;5088059;28;20459;-80
2021/05/02 12:06:28;;;;;;;6.10;1.23;;;10.10;46.80;;;;;;5088001;28;20378;-79
2021/05/02 12:08:55;;;;;;;6.30;1.30;;;9.90;46.60;;;;;;5087751;28;20501;-76
2021/05/02 12:11:22;;;;;;;4.15;1.20;;;9.80;48.00;;;;;;5087910;28;20432;-82
2021/05/02 12:13:50;;;;;;;3.97;1.00;;;10.10;47.80;;;;;;5087424;28;20412;-80
2021/05/02 12:16:20;;;;;;;4.25;1.35;;;10.10;48.90;;;;;;5089050;28;20434;-80
2021/05/02 12:18:50;;;;;;;1.70;1.10;;;9.80;47.20;;;;;;5086998;28;20843;-80
2021/05/02 12:21:17;;;;;;;2.47;1.25;;;9.90;49.20;;;;;;5088727;28;20381;-83
2021/05/02 12:23:43;;;;;;;4.55;1.38;;;10.00;47.50;;;;;;5088075;28;20390;-79
2021/05/02 12:26:10;;;;;;;3.75;1.40;;;10.00;48.00;;;;;;5090486;28;20469;-81
2021/05/02 12:28:37;;;;;;;10.27;1.33;;;10.20;48.10;;;;;;5089401;28;20398;-81
2021/05/02 12:31:04;;;;;;;1.90;1.00;;;10.30;47.90;;;;;;5090450;28;20374;-79
2021/05/02 12:33:34;;;;;;;3.63;1.23;;;10.60;46.10;;;;;;5089591;28;20881;-81
2021/05/02 12:35:59;;;;;;;3.53;1.30;;;10.40;46.80;;;;;;5093587;28;20378;-78
2021/05/02 12:38:28;;;;;;;2.60;1.20;;;10.20;47.20;;;;;;5093859;28;20382;-79
2021/05/02 12:40:54;;;;;;;2.33;1.08;;;9.90;46.70;;;;;;5092438;28;20378;-81
2021/05/02 12:43:24;;;;;;;2.33;1.10;;;9.90;47.30;;;;;;5094271;28;20695;-80
2021/05/02 12:45:50;;;;;;;4.35;1.10;;;9.80;47.50;;;;;;5092766;28;20828;-79
2021/05/02 12:48:35;;;;;;;3.63;1.10;;;9.90;46.20;;;;;;5092628;28;20440;-80
2021/05/02 12:51:01;;;;;;;4.15;1.08;;;9.60;46.70;;;;;;5092590;28;20512;-80
2021/05/02 12:53:43;;;;;;;2.38;1.20;;;9.60;48.80;;;;;;5094338;28;20853;-79
2021/05/02 12:56:09;;;;;;;3.05;1.50;;;9.70;47.00;;;;;;5093760;28;20405;-80
2021/05/02 12:58:45;;;;;;;2.97;1.20;;;9.80;47.40;;;;;;5093479;28;20393;-80